KFKR

Frankfort Municipal Airport

Frankfort, Indiana, USA
METAR KFKR 212315Z AUTO 34007KT 10SM OVC030 24/19 A2992 RMK AO2 T02360185
Observed Flight Rules
Aug-21 @ 23:15 UTC (32 minutes ago) Marginal Visual Flight Rules
Wind Visibility Clouds
340° at 7 knots 10 miles
  • Overcast at 3,000' AGL
Temperatures Readings
Current 24°C / 75°F
Dewpoint 19°C / 66°F
Humidity 74%
Altimeter 29.92" Hg
Pressure 1013 hPa
Elevation 262
METAR KFKR 212315Z AUTO 34007KT 10SM OVC030 24/19 A2992 RMK AO2 T02360185
Observed Flight Rules
Aug-21 @ 23:15 UTC
(32 minutes ago)
MVFR
Wind Visibility
340° at 7 knots 10 miles
Clouds
  • Overcast at 3,000' AGL
Temperature Dewpoint
24°C / 75°F 19°C / 66°F
Humidity Altimeter Pressure
74% 29.92" Hg 1013 hPa